createdAt,value
2022-12-18T00:00:03.186Z,94.20
2022-12-18T00:03:06.182Z,94.10
2022-12-18T00:06:10.515Z,94.10
2022-12-18T00:09:13.420Z,94.00
2022-12-18T00:15:25.879Z,94.20
2022-12-18T00:18:28.752Z,94.10
2022-12-18T00:21:33.188Z,94.20
2022-12-18T00:24:36.043Z,94.20
2022-12-18T00:27:39.140Z,94.10
2022-12-18T00:30:43.328Z,94.00
2022-12-18T00:33:46.815Z,94.00
2022-12-18T00:36:51.177Z,94.10
2022-12-18T00:39:54.012Z,94.00
2022-12-18T00:42:58.866Z,94.10
2022-12-18T00:46:03.213Z,94.10
2022-12-18T00:49:06.679Z,93.90
2022-12-18T00:52:09.540Z,94.10
2022-12-18T00:55:13.014Z,94.10
2022-12-18T00:58:18.035Z,94.10
2022-12-18T01:01:22.377Z,94.20
2022-12-18T01:04:25.351Z,94.20
2022-12-18T01:07:28.417Z,94.30
2022-12-18T01:10:31.264Z,94.30
2022-12-18T01:13:34.191Z,94.20
2022-12-18T01:16:38.516Z,94.10
2022-12-18T01:19:41.396Z,93.70
2022-12-18T01:22:44.311Z,93.80
2022-12-18T01:25:47.444Z,93.60
2022-12-18T01:28:50.488Z,93.70
2022-12-18T01:31:57.299Z,93.80
2022-12-18T01:35:00.311Z,94.10
2022-12-18T01:38:03.137Z,94.10
2022-12-18T01:41:05.962Z,94.20
2022-12-18T01:44:42.511Z,94.20
2022-12-18T01:47:49.813Z,94.20
2022-12-18T01:50:52.670Z,94.30
2022-12-18T01:53:55.599Z,94.40
2022-12-18T01:56:58.481Z,94.60
2022-12-18T02:00:06.326Z,94.50
2022-12-18T02:03:10.587Z,94.40
2022-12-18T02:06:18.990Z,94.30
2022-12-18T02:09:27.000Z,94.30
2022-12-18T02:12:37.037Z,94.40
2022-12-18T02:15:46.007Z,94.40
2022-12-18T02:18:53.568Z,94.50
2022-12-18T02:22:03.179Z,94.70
2022-12-18T02:25:26.055Z,94.70
2022-12-18T02:28:33.735Z,94.60
2022-12-18T02:31:41.883Z,94.60
2022-12-18T02:34:46.403Z,94.50
2022-12-18T02:37:49.685Z,94.50
2022-12-18T02:40:55.007Z,94.40
2022-12-18T02:44:03.871Z,94.50
2022-12-18T02:47:06.835Z,94.70
2022-12-18T02:50:17.356Z,94.70
2022-12-18T02:53:29.343Z,94.70
2022-12-18T02:56:37.236Z,94.50
2022-12-18T02:59:48.561Z,94.60
2022-12-18T03:02:56.750Z,94.60
2022-12-18T03:06:05.776Z,94.60
2022-12-18T03:09:12.731Z,94.30
2022-12-18T03:12:25.840Z,94.50
2022-12-18T03:15:33.753Z,94.50
2022-12-18T03:18:40.916Z,94.50
2022-12-18T03:21:47.591Z,94.70
2022-12-18T03:24:50.955Z,94.60
2022-12-18T03:27:57.420Z,94.50
2022-12-18T03:31:03.848Z,94.70
2022-12-18T03:34:11.182Z,94.70
2022-12-18T03:37:14.103Z,94.90
2022-12-18T03:40:17.174Z,94.70
2022-12-18T03:43:28.214Z,94.70
2022-12-18T03:46:41.312Z,94.70
2022-12-18T03:49:52.426Z,94.60
2022-12-18T03:53:00.465Z,94.60
2022-12-18T03:56:05.915Z,94.60
2022-12-18T03:59:11.730Z,94.70
2022-12-18T04:02:18.121Z,94.80
2022-12-18T04:05:22.336Z,94.90
2022-12-18T04:08:26.163Z,95.00
2022-12-18T04:11:29.198Z,94.80
2022-12-18T04:14:36.477Z,94.90
2022-12-18T04:17:44.108Z,94.90
2022-12-18T04:20:47.130Z,94.80
2022-12-18T04:23:50.203Z,95.00
2022-12-18T04:26:53.032Z,94.80
2022-12-18T04:29:56.076Z,94.80
2022-12-18T04:33:00.255Z,94.70
2022-12-18T04:36:03.151Z,94.70
2022-12-18T04:39:05.996Z,94.70
2022-12-18T04:42:09.012Z,94.80
2022-12-18T04:45:12.263Z,94.70
2022-12-18T04:48:16.584Z,94.80
2022-12-18T04:51:25.937Z,94.70
2022-12-18T04:54:29.433Z,94.70
2022-12-18T04:57:32.303Z,94.70
2022-12-18T05:00:35.328Z,94.60
2022-12-18T05:03:40.492Z,94.70
2022-12-18T05:06:43.729Z,94.70
2022-12-18T05:09:46.677Z,94.70
2022-12-18T05:13:03.626Z,94.80
2022-12-18T05:16:07.907Z,94.60
2022-12-18T05:19:12.422Z,94.70
2022-12-18T05:22:16.216Z,94.80
2022-12-18T05:25:19.687Z,94.80
2022-12-18T05:28:24.397Z,94.80
2022-12-18T05:31:27.299Z,94.70
2022-12-18T05:34:32.070Z,94.70
2022-12-18T05:37:39.543Z,94.60
2022-12-18T05:40:46.103Z,94.50
2022-12-18T05:43:49.037Z,94.40
2022-12-18T05:46:51.931Z,94.50
2022-12-18T05:49:56.489Z,94.50
2022-12-18T05:52:59.319Z,94.60
2022-12-18T05:56:03.620Z,94.60
2022-12-18T05:59:06.473Z,94.60
2022-12-18T06:02:09.499Z,94.60
2022-12-18T06:05:14.114Z,94.50
2022-12-18T06:08:17.011Z,94.50
2022-12-18T06:11:21.983Z,94.50
2022-12-18T06:14:24.862Z,94.50
2022-12-18T06:17:30.869Z,94.30
2022-12-18T06:20:37.484Z,94.30
2022-12-18T06:23:40.927Z,94.30
2022-12-18T06:26:44.009Z,94.50
2022-12-18T06:29:46.886Z,94.50
2022-12-18T06:32:56.414Z,94.50
2022-12-18T06:36:04.611Z,94.40
2022-12-18T06:39:07.487Z,94.50
2022-12-18T06:42:10.574Z,94.50
2022-12-18T06:45:13.672Z,94.70
2022-12-18T06:48:16.536Z,94.80
2022-12-18T06:51:22.160Z,94.50
2022-12-18T06:54:25.038Z,94.60
2022-12-18T06:57:28.130Z,94.40
2022-12-18T07:00:31.034Z,94.30
2022-12-18T07:03:34.021Z,94.20
2022-12-18T07:06:38.482Z,94.10
2022-12-18T07:09:41.300Z,94.40
2022-12-18T07:12:44.227Z,94.40
2022-12-18T07:15:47.306Z,94.40
2022-12-18T07:18:50.354Z,94.20
2022-12-18T07:21:54.669Z,94.20
2022-12-18T07:24:57.518Z,93.90
2022-12-18T07:28:00.763Z,93.80
2022-12-18T07:31:05.354Z,93.80
2022-12-18T07:34:12.957Z,93.80
2022-12-18T07:37:17.174Z,93.60
2022-12-18T07:40:20.090Z,93.70
2022-12-18T07:43:22.935Z,93.60
2022-12-18T07:46:25.889Z,93.70
2022-12-18T07:49:29.315Z,93.70
2022-12-18T07:52:33.532Z,93.80
2022-12-18T07:56:05.521Z,93.80
2022-12-18T07:59:00.977Z,93.90
2022-12-18T08:02:04.074Z,93.90
2022-12-18T08:05:07.679Z,94.00
2022-12-18T08:08:11.977Z,93.70
2022-12-18T08:11:14.815Z,93.90
2022-12-18T08:14:17.734Z,93.80
2022-12-18T08:17:21.938Z,94.00
2022-12-18T08:20:24.920Z,93.80
2022-12-18T08:23:29.114Z,93.70
2022-12-18T08:26:33.328Z,93.70
2022-12-18T08:29:37.423Z,93.90
2022-12-18T08:32:40.312Z,93.90
2022-12-18T08:35:46.003Z,94.00
2022-12-18T08:38:50.520Z,93.90
2022-12-18T08:42:10.261Z,94.20
2022-12-18T08:45:13.407Z,94.10
2022-12-18T08:48:21.852Z,94.00
2022-12-18T08:51:25.321Z,94.30
2022-12-18T08:54:30.511Z,94.30
2022-12-18T08:57:33.626Z,94.30
2022-12-18T09:00:36.468Z,94.30
2022-12-18T09:03:40.337Z,94.20
2022-12-18T09:06:43.447Z,94.10
2022-12-18T09:09:47.735Z,93.90
2022-12-18T09:12:50.566Z,93.90
2022-12-18T09:15:55.555Z,93.90
2022-12-18T09:19:00.605Z,93.90
2022-12-18T09:22:03.545Z,93.90
2022-12-18T09:25:09.781Z,94.00
2022-12-18T09:28:17.759Z,94.00
2022-12-18T09:31:22.844Z,93.90
2022-12-18T09:34:26.039Z,94.00
2022-12-18T09:37:29.019Z,93.80
2022-12-18T09:40:36.971Z,93.60
2022-12-18T09:43:47.332Z,93.70
2022-12-18T09:46:55.615Z,93.80
2022-12-18T09:50:03.049Z,94.00
2022-12-18T09:53:12.272Z,93.70
2022-12-18T09:56:20.523Z,93.80
2022-12-18T09:59:28.579Z,94.00
2022-12-18T10:02:33.498Z,93.80
2022-12-18T10:05:44.651Z,93.80
2022-12-18T10:08:55.722Z,93.50
2022-12-18T10:12:08.247Z,93.10
2022-12-18T10:15:18.423Z,93.50
2022-12-18T10:18:33.576Z,93.20
2022-12-18T10:21:41.528Z,93.00
2022-12-18T10:24:50.480Z,92.90
2022-12-18T10:27:59.387Z,93.10
2022-12-18T10:31:02.382Z,93.50
2022-12-18T10:34:05.451Z,93.00
2022-12-18T10:37:14.333Z,93.10
2022-12-18T10:40:22.222Z,92.80
2022-12-18T10:43:30.062Z,92.70
2022-12-18T10:46:33.700Z,92.40
2022-12-18T10:49:37.956Z,92.40
2022-12-18T10:52:45.025Z,92.50
2022-12-18T10:55:51.153Z,92.50
2022-12-18T10:59:01.520Z,92.70
2022-12-18T11:02:28.805Z,92.50
2022-12-18T11:05:33.353Z,92.50
2022-12-18T11:08:36.763Z,92.70
2022-12-18T11:11:40.190Z,92.90
2022-12-18T11:14:50.280Z,92.80
2022-12-18T11:17:54.456Z,92.90
2022-12-18T11:20:59.901Z,92.90
2022-12-18T11:24:03.032Z,92.90
2022-12-18T11:27:15.811Z,93.10
2022-12-18T11:30:27.011Z,93.10
2022-12-18T11:33:29.975Z,92.40
2022-12-18T11:36:37.614Z,92.50
2022-12-18T11:39:44.862Z,92.80
2022-12-18T11:42:52.419Z,92.60
2022-12-18T11:46:01.850Z,92.40
2022-12-18T11:49:13.002Z,92.40
2022-12-18T11:52:21.376Z,92.50
2022-12-18T11:55:34.189Z,92.60
2022-12-18T11:58:59.435Z,92.80
2022-12-18T12:02:16.728Z,92.70
2022-12-18T12:05:35.530Z,93.10
2022-12-18T12:08:53.530Z,93.20
2022-12-18T12:12:10.199Z,93.00
2022-12-18T12:15:26.381Z,92.70
2022-12-18T12:18:42.564Z,92.60
2022-12-18T12:21:55.938Z,92.90
2022-12-18T12:25:12.205Z,92.90
2022-12-18T12:28:35.641Z,93.20
2022-12-18T12:32:03.145Z,92.50
2022-12-18T12:35:22.450Z,92.60
2022-12-18T12:38:30.165Z,92.60
2022-12-18T12:41:53.051Z,92.40
2022-12-18T12:44:59.348Z,92.30
2022-12-18T12:48:04.800Z,92.80
2022-12-18T12:51:17.119Z,92.50
2022-12-18T12:54:22.849Z,92.50
2022-12-18T12:57:32.883Z,92.30
2022-12-18T13:00:43.396Z,92.30
2022-12-18T13:03:55.841Z,92.80
2022-12-18T13:07:05.830Z,92.80
2022-12-18T13:10:34.614Z,93.10
2022-12-18T13:13:50.897Z,92.30
2022-12-18T13:17:14.366Z,92.50
2022-12-18T13:20:18.278Z,92.60
2022-12-18T13:23:38.326Z,92.40
2022-12-18T13:26:41.204Z,92.80
2022-12-18T13:29:46.696Z,92.70
2022-12-18T13:32:50.334Z,92.40
2022-12-18T13:35:55.026Z,92.30
2022-12-18T13:39:26.666Z,92.40
2022-12-18T13:43:00.242Z,92.60
2022-12-18T13:46:18.919Z,92.60
2022-12-18T13:49:25.721Z,92.60
2022-12-18T13:52:30.848Z,92.60
2022-12-18T13:55:36.504Z,92.50
2022-12-18T13:58:39.726Z,92.70
2022-12-18T14:01:48.772Z,93.00
2022-12-18T14:04:52.790Z,93.10
2022-12-18T14:07:56.855Z,92.90
2022-12-18T14:11:02.578Z,93.00
2022-12-18T14:14:08.336Z,92.70
2022-12-18T14:17:13.183Z,92.60
2022-12-18T14:20:17.561Z,92.80
2022-12-18T14:23:32.286Z,92.90
2022-12-18T14:26:36.539Z,93.10
2022-12-18T14:29:46.001Z,93.30
2022-12-18T14:33:02.444Z,93.30
2022-12-18T14:36:07.412Z,93.20
2022-12-18T14:39:19.550Z,93.00
2022-12-18T14:42:23.818Z,92.90
2022-12-18T14:45:43.050Z,92.90
2022-12-18T14:48:49.554Z,93.00
2022-12-18T14:51:54.644Z,93.10
2022-12-18T14:54:57.545Z,93.10
2022-12-18T14:58:01.771Z,92.90
2022-12-18T15:01:04.685Z,94.70
2022-12-18T15:04:26.494Z,93.20
2022-12-18T15:07:29.494Z,93.10
2022-12-18T15:10:34.122Z,93.10
2022-12-18T15:13:38.626Z,93.20
2022-12-18T15:16:46.028Z,93.40
2022-12-18T15:19:51.722Z,93.40
2022-12-18T15:22:55.200Z,93.40
2022-12-18T15:25:59.858Z,93.30
2022-12-18T15:29:04.370Z,93.40
2022-12-18T15:32:20.778Z,93.50
2022-12-18T15:35:25.354Z,93.70
2022-12-18T15:38:28.554Z,93.50
2022-12-18T15:41:33.863Z,93.70
2022-12-18T15:44:40.221Z,93.40
2022-12-18T15:47:43.679Z,93.40
2022-12-18T15:50:46.747Z,93.40
2022-12-18T15:53:51.142Z,93.40
2022-12-18T15:57:11.812Z,93.40
2022-12-18T16:00:17.207Z,93.60
2022-12-18T16:03:20.206Z,93.50
2022-12-18T16:06:23.663Z,93.50
2022-12-18T16:09:26.718Z,93.50
2022-12-18T16:12:29.671Z,93.60
2022-12-18T16:15:33.962Z,93.50
2022-12-18T16:18:36.870Z,93.70
2022-12-18T16:21:39.765Z,93.40
2022-12-18T16:24:43.704Z,93.50
2022-12-18T16:27:46.572Z,93.70
2022-12-18T16:30:52.659Z,93.90
2022-12-18T16:34:19.728Z,94.00
2022-12-18T16:37:25.543Z,94.20
2022-12-18T16:40:28.665Z,93.90
2022-12-18T16:43:31.524Z,93.90
2022-12-18T16:46:36.105Z,94.00
2022-12-18T16:49:39.082Z,94.10
2022-12-18T16:52:42.592Z,94.10
2022-12-18T16:55:45.723Z,94.00
2022-12-18T16:58:52.758Z,93.60
2022-12-18T17:01:57.414Z,93.60
2022-12-18T17:05:00.820Z,93.60
2022-12-18T17:08:03.706Z,93.30
2022-12-18T17:11:08.071Z,93.40
2022-12-18T17:14:14.362Z,93.60
2022-12-18T17:17:21.927Z,93.70
2022-12-18T17:20:25.848Z,93.60
2022-12-18T17:23:29.038Z,93.70
2022-12-18T17:26:32.062Z,93.50
2022-12-18T17:29:34.995Z,93.60
2022-12-18T17:32:39.283Z,93.90
2022-12-18T17:35:42.196Z,93.70
2022-12-18T17:38:50.835Z,93.80
2022-12-18T17:41:53.719Z,93.70
2022-12-18T17:44:56.700Z,93.70
2022-12-18T17:48:00.989Z,93.70
2022-12-18T17:51:04.018Z,93.90
2022-12-18T17:54:07.227Z,93.90
2022-12-18T17:57:10.315Z,93.50
2022-12-18T18:00:15.212Z,93.80
2022-12-18T18:03:19.879Z,93.90
2022-12-18T18:06:23.472Z,93.90
2022-12-18T18:09:26.456Z,93.80
2022-12-18T18:12:46.875Z,93.70
2022-12-18T18:15:56.972Z,93.60
2022-12-18T18:19:02.837Z,93.60
2022-12-18T18:22:05.824Z,93.50
2022-12-18T18:25:09.014Z,93.60
2022-12-18T18:28:13.760Z,93.90
2022-12-18T18:31:16.953Z,94.00
2022-12-18T18:34:23.108Z,94.10
2022-12-18T18:37:26.074Z,94.10
2022-12-18T18:40:28.960Z,93.90
2022-12-18T18:43:32.466Z,93.90
2022-12-18T18:46:35.418Z,93.80
2022-12-18T18:49:39.638Z,93.90
2022-12-18T18:52:42.521Z,93.80
2022-12-18T18:56:03.957Z,93.90
2022-12-18T18:59:10.465Z,93.90
2022-12-18T19:02:14.493Z,93.90
2022-12-18T19:05:18.997Z,93.80
2022-12-18T19:08:21.999Z,93.80
2022-12-18T19:11:46.384Z,93.90
2022-12-18T19:14:49.940Z,93.90
2022-12-18T19:17:53.793Z,93.90
2022-12-18T19:20:59.620Z,93.70
2022-12-18T19:24:03.425Z,93.80
2022-12-18T19:27:06.303Z,94.00
2022-12-18T19:30:10.716Z,93.90
2022-12-18T19:33:41.829Z,93.90
2022-12-18T19:36:40.355Z,93.80
2022-12-18T19:39:43.264Z,93.80
2022-12-18T19:42:46.397Z,93.80
2022-12-18T19:45:55.737Z,94.00
2022-12-18T19:49:00.409Z,94.00
2022-12-18T19:52:05.203Z,93.90
2022-12-18T19:55:09.016Z,93.70
2022-12-18T19:58:11.925Z,93.70
2022-12-18T20:01:16.792Z,94.00
2022-12-18T20:04:20.195Z,93.80
2022-12-18T20:07:24.476Z,93.70
2022-12-18T20:10:27.477Z,94.20
2022-12-18T20:13:30.405Z,93.60
2022-12-18T20:16:33.616Z,93.90
2022-12-18T20:19:36.648Z,93.80
2022-12-18T20:22:41.320Z,94.20
2022-12-18T20:25:44.196Z,94.30
2022-12-18T20:28:47.270Z,94.10
2022-12-18T20:31:50.205Z,94.10
2022-12-18T20:34:53.117Z,93.90
2022-12-18T20:37:57.870Z,93.80
2022-12-18T20:41:02.586Z,93.80
2022-12-18T20:44:05.920Z,93.60
2022-12-18T20:47:11.725Z,93.90
2022-12-18T20:50:14.639Z,93.80
2022-12-18T20:53:18.913Z,93.80
2022-12-18T20:56:23.263Z,93.60
2022-12-18T20:59:26.476Z,93.70
2022-12-18T21:02:29.588Z,93.80
2022-12-18T21:05:32.704Z,93.70
2022-12-18T21:08:37.443Z,93.60
2022-12-18T21:11:57.889Z,93.60
2022-12-18T21:15:01.649Z,93.90
2022-12-18T21:18:04.573Z,93.80
2022-12-18T21:21:07.573Z,93.90
2022-12-18T21:24:12.612Z,93.90
2022-12-18T21:27:18.004Z,93.70
2022-12-18T21:30:21.353Z,93.60
2022-12-18T21:33:24.374Z,93.70
2022-12-18T21:36:27.643Z,94.10
2022-12-18T21:39:32.394Z,93.70
2022-12-18T21:42:52.952Z,93.60
2022-12-18T21:45:56.066Z,93.90
2022-12-18T21:49:00.158Z,93.70
2022-12-18T21:52:03.156Z,93.50
2022-12-18T21:55:10.126Z,93.50
2022-12-18T21:58:13.361Z,93.40
2022-12-18T22:01:17.655Z,93.30
2022-12-18T22:04:21.862Z,93.20
2022-12-18T22:07:24.983Z,93.40
2022-12-18T22:10:29.307Z,93.30
2022-12-18T22:13:32.272Z,93.60
2022-12-18T22:16:35.519Z,93.80
2022-12-18T22:19:42.813Z,93.70
2022-12-18T22:22:46.453Z,93.60
2022-12-18T22:25:50.891Z,93.70
2022-12-18T22:29:11.811Z,93.60
2022-12-18T22:32:21.287Z,93.40
2022-12-18T22:35:34.064Z,93.40
2022-12-18T22:38:37.416Z,93.30
2022-12-18T22:41:41.923Z,93.60
2022-12-18T22:44:44.828Z,93.50
2022-12-18T22:47:47.749Z,93.40
2022-12-18T22:50:51.115Z,93.60
2022-12-18T22:53:56.731Z,93.40
2022-12-18T22:57:01.001Z,93.30
2022-12-18T23:00:04.175Z,93.40
2022-12-18T23:03:07.529Z,93.40
2022-12-18T23:06:11.393Z,93.20
2022-12-18T23:09:16.532Z,93.20
2022-12-18T23:12:21.053Z,93.10
2022-12-18T23:15:27.847Z,93.20
2022-12-18T23:18:31.343Z,93.20
2022-12-18T23:21:34.362Z,93.50
2022-12-18T23:24:38.432Z,93.40
2022-12-18T23:27:42.772Z,93.60
2022-12-18T23:30:45.660Z,93.60
2022-12-18T23:33:49.568Z,93.60
2022-12-18T23:36:56.005Z,93.50
2022-12-18T23:39:59.157Z,93.50
2022-12-18T23:43:03.464Z,93.70
2022-12-18T23:46:12.670Z,93.60
2022-12-18T23:49:15.552Z,93.40
2022-12-18T23:52:18.458Z,93.50
2022-12-18T23:55:21.357Z,93.60
2022-12-18T23:58:25.659Z,93.40
